createdAt,value
2023-06-05T03:02:38.724Z,1999.90
2023-06-05T03:03:41.296Z,1999.90
2023-06-05T03:04:44.192Z,1999.90
2023-06-05T03:05:46.309Z,1999.90
2023-06-05T03:06:54.348Z,1999.90
2023-06-05T03:07:56.294Z,1999.90
2023-06-05T03:08:59.671Z,1999.90
2023-06-05T03:10:02.323Z,1999.90
2023-06-05T03:11:06.845Z,1999.90
2023-06-05T03:12:09.628Z,1999.90
2023-06-05T03:13:12.426Z,1999.90
2023-06-05T03:14:14.744Z,1999.90
2023-06-05T03:15:19.028Z,1999.90
2023-06-05T03:16:24.405Z,1999.90
2023-06-05T03:17:29.991Z,1999.90
2023-06-05T03:18:33.119Z,1999.90
2023-06-05T03:19:37.077Z,1999.90
2023-06-05T03:20:39.513Z,1999.90
2023-06-05T03:21:44.079Z,1999.90
2023-06-05T03:22:46.922Z,1999.90
2023-06-05T03:23:50.626Z,1999.90
2023-06-05T03:24:52.921Z,1999.90
2023-06-05T03:25:56.734Z,1999.90
2023-06-05T03:26:59.257Z,1999.90
2023-06-05T03:28:02.149Z,1999.90
2023-06-05T03:29:04.450Z,1999.90
2023-06-05T03:30:09.825Z,1999.90
2023-06-05T03:31:17.268Z,1999.90
2023-06-05T03:32:23.024Z,1999.90
2023-06-05T03:33:25.113Z,1999.90
2023-06-05T03:34:30.797Z,1999.90
2023-06-05T03:35:36.180Z,1999.90
2023-06-05T03:36:41.783Z,1999.90
2023-06-05T03:37:46.325Z,1999.90
2023-06-05T03:38:49.194Z,1999.90
2023-06-05T03:39:51.140Z,1999.90
2023-06-05T03:40:54.087Z,1999.90
2023-06-05T03:41:56.621Z,1999.90
2023-06-05T03:43:02.759Z,1999.90
2023-06-05T03:44:09.893Z,1999.90
2023-06-05T03:45:13.343Z,1999.90
2023-06-05T03:46:19.368Z,1999.90
2023-06-05T03:47:23.086Z,1999.90
2023-06-05T03:48:25.094Z,1999.90
2023-06-05T03:49:29.556Z,1999.90
2023-06-05T03:50:34.793Z,1999.90
2023-06-05T03:51:37.657Z,1999.90
2023-06-05T03:52:42.796Z,1999.90
2023-06-05T03:53:45.675Z,1999.90
2023-06-05T03:54:48.164Z,1999.90
2023-06-05T03:55:54.691Z,1999.90
2023-06-05T03:57:01.430Z,1999.90
2023-06-05T03:58:04.766Z,1999.90
2023-06-05T03:59:10.290Z,1999.90
2023-06-05T04:00:16.664Z,1999.90
2023-06-05T04:01:28.972Z,1999.90
2023-06-05T04:02:31.879Z,1999.90
2023-06-05T04:03:38.363Z,1999.90
2023-06-05T04:04:41.473Z,1999.90
2023-06-05T04:05:44.569Z,1999.90
2023-06-05T04:06:47.866Z,1999.90
2023-06-05T04:07:49.943Z,1999.90
2023-06-05T04:08:53.264Z,1999.90
2023-06-05T04:09:55.125Z,1999.90
2023-06-05T04:10:57.870Z,1999.90
2023-06-05T04:11:59.901Z,1999.90
2023-06-05T04:13:04.005Z,1999.90
2023-06-05T04:14:08.804Z,1999.90
2023-06-05T04:15:12.583Z,1999.90
2023-06-05T04:16:15.688Z,1999.90
2023-06-05T04:17:20.158Z,1999.90
2023-06-05T04:18:22.067Z,1999.90
2023-06-05T04:19:26.608Z,1999.90
2023-06-05T04:20:31.152Z,1999.90
2023-06-05T04:21:37.027Z,1999.90
2023-06-05T04:22:38.873Z,1999.90
2023-06-05T04:23:41.673Z,1999.90
2023-06-05T04:24:43.516Z,1999.90
2023-06-05T04:25:50.046Z,1999.90
2023-06-05T04:26:53.020Z,1999.90
2023-06-05T04:27:57.236Z,1999.90
2023-06-05T04:28:59.107Z,1999.90
2023-06-05T04:30:02.309Z,1999.90
2023-06-05T04:31:04.228Z,1999.90
2023-06-05T04:32:08.521Z,1999.90
2023-06-05T04:33:10.383Z,1999.90
2023-06-05T04:34:15.558Z,1999.90
2023-06-05T04:35:18.535Z,1999.90
2023-06-05T04:36:20.381Z,1999.90
2023-06-05T04:37:24.720Z,1999.90
2023-06-05T04:38:29.131Z,1999.90
2023-06-05T04:39:32.043Z,1999.90
2023-06-05T04:40:34.734Z,1999.90
2023-06-05T04:41:40.298Z,1999.90
2023-06-05T04:42:42.346Z,1999.90
2023-06-05T04:43:45.354Z,1999.90
2023-06-05T04:44:57.912Z,1999.90
2023-06-05T04:46:01.794Z,1999.90
2023-06-05T04:47:07.289Z,1999.90
2023-06-05T04:48:09.273Z,1999.90
2023-06-05T04:49:12.364Z,1999.90
2023-06-05T04:50:25.379Z,1999.90
2023-06-05T04:51:30.035Z,1999.90
2023-06-05T04:52:36.129Z,1999.90
2023-06-05T04:53:38.929Z,1999.90
2023-06-05T04:54:40.944Z,1999.90
2023-06-05T04:55:45.350Z,1999.90
2023-06-05T04:56:47.520Z,1999.90
2023-06-05T04:57:50.747Z,1999.90
2023-06-05T04:58:54.630Z,1999.90
2023-06-05T04:59:58.938Z,1999.90
2023-06-05T06:43:00.568Z,1999.90
2023-06-05T06:44:17.716Z,1999.90
2023-06-05T06:45:20.646Z,1999.90
2023-06-05T06:46:22.506Z,1999.90
2023-06-05T06:47:27.028Z,1999.90
2023-06-05T06:48:33.645Z,1999.90
2023-06-05T06:49:36.503Z,1999.90
2023-06-05T06:50:39.450Z,1999.90
2023-06-05T06:51:42.592Z,1999.90
2023-06-05T06:52:44.457Z,1999.90
2023-06-05T06:53:47.188Z,1999.90
2023-06-05T06:54:49.112Z,1999.90
2023-06-05T06:55:51.843Z,1999.90
2023-06-05T06:56:54.820Z,1999.90
2023-06-05T06:57:57.687Z,1999.90
2023-06-05T06:58:59.483Z,1999.90
2023-06-05T07:00:13.481Z,1999.90
2023-06-05T07:01:16.382Z,1999.90
2023-06-05T07:02:21.127Z,1999.90
2023-06-05T07:03:25.333Z,1999.90
2023-06-05T07:04:28.590Z,1999.90
2023-06-05T07:05:31.350Z,1999.90
2023-06-05T07:06:33.422Z,1999.90
2023-06-05T07:07:36.590Z,1999.90
2023-06-05T07:08:38.718Z,1999.90
2023-06-05T07:09:42.284Z,1999.90
2023-06-05T07:10:45.075Z,1999.90
2023-06-05T07:11:48.033Z,1999.90
2023-06-05T07:12:50.982Z,1999.90
2023-06-05T07:13:54.124Z,1999.90
2023-06-05T07:14:56.997Z,1999.90
2023-06-05T07:16:01.129Z,1999.90
2023-06-05T07:17:04.148Z,1999.90
2023-06-05T07:18:07.372Z,1999.90
2023-06-05T07:19:09.304Z,1999.90
2023-06-05T07:20:13.182Z,1999.90
2023-06-05T07:21:15.020Z,1999.90
2023-06-05T07:22:17.914Z,1999.90
2023-06-05T07:23:21.528Z,1999.90
2023-06-05T07:24:26.288Z,1999.90
2023-06-05T07:25:29.416Z,1999.90
2023-06-05T07:26:31.352Z,1999.90
2023-06-05T07:27:34.104Z,1999.90
2023-06-05T07:28:36.350Z,1999.90
2023-06-05T07:29:39.504Z,1999.90
2023-06-05T07:30:44.662Z,1999.90
2023-06-05T07:31:49.366Z,1999.90
2023-06-05T07:32:52.402Z,1999.90
2023-06-05T07:33:54.300Z,1999.90
2023-06-05T07:34:58.049Z,1999.90
2023-06-05T07:36:00.400Z,1999.90
2023-06-05T07:37:04.092Z,1999.90
2023-06-05T07:38:06.100Z,1999.90
2023-06-05T07:39:10.987Z,1999.90
2023-06-05T07:40:12.993Z,1999.90
2023-06-05T07:41:15.945Z,1999.90
2023-06-05T07:42:18.768Z,1999.90
2023-06-05T07:43:20.629Z,1999.90
2023-06-05T07:44:23.959Z,1999.90
2023-06-05T07:45:26.012Z,1999.90
2023-06-05T07:46:28.978Z,1999.90
2023-06-05T07:47:33.119Z,1999.90
2023-06-05T07:48:34.944Z,1999.90
2023-06-05T07:49:37.681Z,1999.90
2023-06-05T07:50:39.553Z,1999.90
2023-06-05T07:51:42.371Z,1999.90
2023-06-05T07:52:44.186Z,1999.90
2023-06-05T07:53:47.166Z,1999.90
2023-06-05T07:54:49.023Z,1999.90
2023-06-05T07:55:53.098Z,1999.90
2023-06-05T07:56:55.344Z,1999.90
2023-06-05T07:57:58.244Z,1999.90
2023-06-05T07:59:00.658Z,1999.90
2023-06-05T08:00:06.352Z,1999.90
2023-06-05T08:01:16.834Z,1811.80
2023-06-05T08:02:20.090Z,1999.90
2023-06-05T08:03:23.690Z,1999.90
2023-06-05T08:04:28.907Z,1999.90
2023-06-05T08:05:31.018Z,1999.90
2023-06-05T08:06:33.992Z,1999.90
2023-06-05T08:07:36.733Z,1999.90
2023-06-05T08:08:38.695Z,1898.63
2023-06-05T08:09:42.554Z,1999.90
2023-06-05T08:10:45.229Z,1285.80
2023-06-05T08:11:51.166Z,1020.27
2023-06-05T08:12:53.406Z,1380.30
2023-06-05T08:13:56.582Z,1561.63
2023-06-05T08:14:59.499Z,1052.97
2023-06-05T08:16:01.318Z,1999.90
2023-06-05T08:17:05.682Z,1204.17
2023-06-05T08:18:07.539Z,1983.03
2023-06-05T08:19:11.630Z,1222.87
2023-06-05T08:20:15.022Z,1999.90
2023-06-05T08:21:17.998Z,1165.33
2023-06-05T08:22:21.129Z,1999.90
2023-06-05T08:23:23.939Z,1851.67
2023-06-05T08:24:28.085Z,950.40
2023-06-05T08:25:29.960Z,1149.93
2023-06-05T08:26:32.885Z,1165.00
2023-06-05T08:27:34.735Z,1235.23
2023-06-05T08:28:37.741Z,1808.67
2023-06-05T08:29:40.515Z,1367.47
2023-06-05T08:30:42.403Z,1063.60
2023-06-05T08:31:45.571Z,1486.23
2023-06-05T08:32:47.678Z,554.50
2023-06-05T08:33:50.541Z,872.27
2023-06-05T08:34:54.699Z,854.30
2023-06-05T08:35:56.581Z,706.17
2023-06-05T08:37:00.335Z,796.03
2023-06-05T08:38:03.913Z,874.60
2023-06-05T08:39:06.601Z,823.30
2023-06-05T08:40:11.609Z,582.93
2023-06-05T08:41:17.461Z,805.13
2023-06-05T08:42:21.556Z,1780.70
2023-06-05T08:43:24.464Z,690.37
2023-06-05T08:44:26.527Z,491.23
2023-06-05T08:45:32.433Z,413.90
2023-06-05T08:46:52.998Z,647.57
2023-06-05T08:47:58.891Z,292.43
2023-06-05T08:49:09.839Z,506.00
2023-06-05T08:50:13.835Z,388.07
2023-06-05T08:51:18.631Z,604.97
2023-06-05T08:52:24.374Z,820.13
2023-06-05T08:53:33.387Z,1099.33
2023-06-05T08:54:38.843Z,621.70
2023-06-05T08:55:42.110Z,363.77
2023-06-05T08:56:44.719Z,315.10
2023-06-05T08:57:49.705Z,447.20
2023-06-05T08:58:53.774Z,555.37
2023-06-05T08:59:58.453Z,501.40
2023-06-05T09:01:01.315Z,694.70
2023-06-05T09:02:04.144Z,254.50
2023-06-05T09:03:07.120Z,539.77
2023-06-05T09:04:12.877Z,771.67
2023-06-05T09:05:16.704Z,661.27
2023-06-05T09:06:19.510Z,353.23
2023-06-05T09:07:21.471Z,656.20
2023-06-05T09:08:32.746Z,722.30
2023-06-05T09:09:35.344Z,607.73
2023-06-05T09:10:38.188Z,616.07
2023-06-05T09:11:40.753Z,448.87
2023-06-05T09:12:55.728Z,578.83
2023-06-05T09:14:02.554Z,574.17
2023-06-05T09:15:23.882Z,281.93
2023-06-05T09:16:35.755Z,491.27
2023-06-05T09:17:38.565Z,532.50
2023-06-05T09:18:52.690Z,792.20
2023-06-05T09:19:55.485Z,507.27
2023-06-05T09:21:14.046Z,624.83
2023-06-05T09:22:18.168Z,463.40
2023-06-05T09:23:26.638Z,421.83
2023-06-05T09:24:31.769Z,598.13
2023-06-05T09:25:49.067Z,646.13
2023-06-05T09:26:55.188Z,424.63
2023-06-05T09:28:07.730Z,638.80
2023-06-05T09:29:11.573Z,365.70
2023-06-05T09:30:14.402Z,575.40
2023-06-05T09:31:17.930Z,438.07
2023-06-05T09:32:22.169Z,724.53
2023-06-05T09:33:24.618Z,835.40
2023-06-05T09:34:29.503Z,865.30
2023-06-05T09:35:31.386Z,602.50
2023-06-05T09:36:36.201Z,460.03
2023-06-05T09:37:38.677Z,521.80
2023-06-05T09:38:43.045Z,848.67
2023-06-05T09:39:47.025Z,542.50
2023-06-05T09:40:48.851Z,617.53
2023-06-05T09:41:53.082Z,814.27
2023-06-05T09:42:55.917Z,826.43
2023-06-05T09:43:58.139Z,553.27
2023-06-05T09:45:01.835Z,447.00
2023-06-05T09:46:09.329Z,828.07
2023-06-05T09:47:14.338Z,911.10
2023-06-05T09:48:16.846Z,672.53
2023-06-05T09:49:20.062Z,699.23
2023-06-05T09:50:22.939Z,693.43
2023-06-05T09:51:25.830Z,878.27
2023-06-05T09:52:30.252Z,876.63
2023-06-05T09:53:33.292Z,815.30
2023-06-05T09:54:39.561Z,862.70
2023-06-05T09:55:42.046Z,772.83
2023-06-05T09:56:49.812Z,665.40
2023-06-05T09:57:52.752Z,890.00
2023-06-05T09:58:56.169Z,679.87
2023-06-05T10:00:04.562Z,750.60
2023-06-05T10:01:08.493Z,930.07
2023-06-05T10:02:17.025Z,725.47
2023-06-05T10:03:21.924Z,537.60
2023-06-05T10:04:27.944Z,782.73
2023-06-05T10:05:30.220Z,983.37
2023-06-05T10:06:35.523Z,739.20
2023-06-05T10:07:40.435Z,730.53
2023-06-05T10:08:42.647Z,1202.70
2023-06-05T10:09:46.680Z,827.50
2023-06-05T10:10:49.483Z,571.63
2023-06-05T10:11:52.846Z,1227.60
2023-06-05T10:12:57.715Z,972.37
2023-06-05T10:14:01.929Z,973.27
2023-06-05T10:15:06.294Z,872.43
2023-06-05T10:16:14.524Z,1032.10
2023-06-05T10:17:25.698Z,1186.93
2023-06-05T10:18:28.068Z,792.33
2023-06-05T10:19:31.992Z,873.13
2023-06-05T10:20:36.269Z,990.80
2023-06-05T10:21:39.249Z,1064.77
2023-06-05T10:22:46.196Z,1514.07
2023-06-05T10:23:50.906Z,1388.83
2023-06-05T10:24:58.145Z,984.97
2023-06-05T10:26:05.595Z,1277.07
2023-06-05T10:27:30.314Z,1118.40
2023-06-05T10:28:46.242Z,1897.50
2023-06-05T10:30:08.244Z,942.10
2023-06-05T10:31:23.292Z,751.87
2023-06-05T10:32:37.816Z,919.80
2023-06-05T10:33:57.176Z,935.93
2023-06-05T10:35:11.059Z,968.03
2023-06-05T10:36:33.254Z,1275.70
2023-06-05T10:37:50.151Z,883.67
2023-06-05T10:38:53.160Z,628.57
2023-06-05T10:39:57.200Z,998.23
2023-06-05T10:41:01.744Z,917.17
2023-06-05T10:42:03.943Z,831.83
2023-06-05T10:43:26.105Z,1024.77
2023-06-05T10:44:40.488Z,894.53
2023-06-05T10:45:46.147Z,962.43
2023-06-05T10:46:55.532Z,1284.27
2023-06-05T10:47:57.449Z,1058.60
2023-06-05T10:49:13.714Z,979.50
2023-06-05T10:50:26.354Z,1047.10
2023-06-05T10:51:39.168Z,1143.30
2023-06-05T10:52:42.023Z,1048.37
2023-06-05T10:53:49.602Z,1060.67
2023-06-05T10:54:57.106Z,872.03
2023-06-05T10:55:58.940Z,1008.43
2023-06-05T10:57:04.310Z,1104.17
2023-06-05T10:58:09.411Z,1067.27
2023-06-05T10:59:17.027Z,1157.07
2023-06-05T11:00:20.193Z,1718.23
2023-06-05T11:01:22.393Z,1046.57
2023-06-05T11:02:26.615Z,1060.03
2023-06-05T11:03:55.549Z,909.43
2023-06-05T11:05:05.515Z,912.27
2023-06-05T11:06:14.802Z,860.90
2023-06-05T11:07:17.926Z,907.77
2023-06-05T11:08:21.027Z,709.77
2023-06-05T11:09:24.317Z,744.10
2023-06-05T11:10:27.192Z,766.13
2023-06-05T11:11:29.102Z,931.73
2023-06-05T11:12:55.931Z,991.17
2023-06-05T11:13:59.530Z,669.60
2023-06-05T11:15:01.602Z,637.67
2023-06-05T11:16:04.587Z,454.87
2023-06-05T11:17:28.440Z,638.50
2023-06-05T11:18:35.901Z,509.93
2023-06-05T11:19:39.521Z,398.43
2023-06-05T11:20:51.558Z,422.37
2023-06-05T11:22:04.081Z,315.50
2023-06-05T11:23:10.519Z,484.70
2023-06-05T11:24:16.553Z,535.70
2023-06-05T11:25:28.982Z,394.37
2023-06-05T11:26:43.375Z,389.63
2023-06-05T11:27:46.499Z,319.33
2023-06-05T11:28:49.410Z,456.23
2023-06-05T11:29:54.225Z,386.20
2023-06-05T11:30:57.818Z,713.47
2023-06-05T11:32:01.189Z,621.73
2023-06-05T11:33:07.861Z,766.30
2023-06-05T11:34:14.295Z,764.50
2023-06-05T11:35:17.211Z,731.40
2023-06-05T11:36:25.644Z,557.57
2023-06-05T11:37:27.799Z,815.13
2023-06-05T11:38:30.951Z,457.40
2023-06-05T11:39:44.723Z,624.10
2023-06-05T11:40:47.832Z,541.20
2023-06-05T11:41:52.342Z,542.57
2023-06-05T11:43:03.980Z,497.70
2023-06-05T11:44:06.808Z,538.20
2023-06-05T11:45:12.573Z,523.50
2023-06-05T11:46:14.689Z,716.87
2023-06-05T11:47:25.104Z,554.07
2023-06-05T11:48:27.461Z,619.00
2023-06-05T11:49:31.117Z,447.50
2023-06-05T11:50:33.198Z,500.03
2023-06-05T11:51:36.682Z,883.40
2023-06-05T11:52:39.356Z,585.97
2023-06-05T11:53:49.456Z,605.63
2023-06-05T11:55:06.494Z,455.60
2023-06-05T11:56:17.596Z,822.37
2023-06-05T11:57:33.789Z,558.83
2023-06-05T11:58:43.741Z,616.07
2023-06-05T11:59:47.362Z,751.23
2023-06-05T12:00:49.278Z,605.13
2023-06-05T12:01:55.283Z,534.50
2023-06-05T12:02:57.859Z,738.00
2023-06-05T12:04:05.977Z,690.57
2023-06-05T12:05:08.891Z,622.93
2023-06-05T12:06:14.433Z,591.83
2023-06-05T12:07:30.832Z,570.03
2023-06-05T12:08:34.771Z,720.10
2023-06-05T12:09:37.628Z,874.63
2023-06-05T12:10:41.598Z,651.07
2023-06-05T12:11:46.511Z,833.83
2023-06-05T12:12:52.118Z,839.13
2023-06-05T12:13:56.393Z,756.20
2023-06-05T12:14:59.188Z,718.37
2023-06-05T12:16:01.591Z,684.57
2023-06-05T12:17:11.411Z,663.47
2023-06-05T12:18:13.371Z,826.90
2023-06-05T12:19:19.395Z,794.90
2023-06-05T12:20:22.609Z,592.07
2023-06-05T12:21:27.404Z,554.23
2023-06-05T12:22:36.509Z,700.33
2023-06-05T12:23:38.630Z,742.60
2023-06-05T12:24:43.003Z,709.17
2023-06-05T12:25:45.086Z,393.43
2023-06-05T12:26:55.934Z,764.23
2023-06-05T12:27:58.968Z,709.53
2023-06-05T12:29:05.408Z,751.97
2023-06-05T12:30:10.648Z,682.80
2023-06-05T12:31:31.206Z,633.53
2023-06-05T12:32:34.230Z,640.23
2023-06-05T12:33:46.987Z,737.43
2023-06-05T12:35:00.085Z,572.83
2023-06-05T12:36:07.342Z,700.73
2023-06-05T12:37:12.136Z,693.57
2023-06-05T12:38:15.826Z,666.87
2023-06-05T12:39:18.831Z,806.83
2023-06-05T12:40:34.761Z,774.33
2023-06-05T12:41:39.555Z,673.40
2023-06-05T12:42:45.593Z,728.03
2023-06-05T12:44:01.068Z,576.10
2023-06-05T12:45:04.041Z,870.73
2023-06-05T12:46:09.288Z,869.17
2023-06-05T12:47:12.057Z,477.20
2023-06-05T12:48:14.888Z,540.97
2023-06-05T12:49:17.609Z,447.50
2023-06-05T12:50:20.409Z,668.20
2023-06-05T12:51:23.395Z,574.33
2023-06-05T12:52:27.612Z,800.00
2023-06-05T12:53:29.578Z,523.60
2023-06-05T12:54:32.317Z,675.43
2023-06-05T12:55:35.118Z,627.90
2023-06-05T12:56:37.603Z,745.57
2023-06-05T12:57:40.519Z,817.40
2023-06-05T12:58:43.739Z,904.67
2023-06-05T12:59:46.479Z,524.97
2023-06-05T13:00:55.766Z,565.50
2023-06-05T13:01:58.658Z,502.03
2023-06-05T13:03:00.840Z,318.97
2023-06-05T13:04:03.796Z,412.43
2023-06-05T13:05:07.497Z,999.93
2023-06-05T13:06:10.731Z,806.57
2023-06-05T13:07:13.762Z,906.30
2023-06-05T13:08:15.651Z,724.23
2023-06-05T13:09:18.395Z,739.63
2023-06-05T13:10:20.296Z,786.17
2023-06-05T13:11:23.017Z,829.23
2023-06-05T13:12:24.846Z,754.73
2023-06-05T13:13:27.709Z,880.57
2023-06-05T13:14:32.298Z,974.93
2023-06-05T13:15:34.190Z,755.33
2023-06-05T13:16:37.041Z,689.13
2023-06-05T13:17:39.556Z,799.97
2023-06-05T13:18:42.467Z,691.00
2023-06-05T13:19:44.363Z,802.47
2023-06-05T13:20:47.357Z,873.80
2023-06-05T13:21:50.575Z,803.10
2023-06-05T13:22:52.705Z,893.43
2023-06-05T13:23:55.657Z,862.47
2023-06-05T13:24:57.542Z,879.33
2023-06-05T13:26:01.057Z,891.87
2023-06-05T13:27:02.921Z,674.50
2023-06-05T13:28:05.837Z,800.67
2023-06-05T13:29:09.174Z,911.07
2023-06-05T13:30:13.410Z,927.17
2023-06-05T13:31:15.354Z,805.77
2023-06-05T13:32:18.357Z,1033.67
2023-06-05T13:33:21.535Z,1076.77
2023-06-05T13:34:23.359Z,994.20
2023-06-05T13:35:26.167Z,774.70
2023-06-05T13:37:13.633Z,761.50
2023-06-05T13:38:17.769Z,968.17
2023-06-05T13:39:19.592Z,1072.47
2023-06-05T13:40:22.366Z,877.63
2023-06-05T13:41:24.432Z,938.73
2023-06-05T13:42:27.301Z,715.33
2023-06-05T13:43:30.173Z,886.80
2023-06-05T13:44:32.267Z,876.27
2023-06-05T13:45:36.379Z,885.53
2023-06-05T13:46:38.464Z,834.80
2023-06-05T13:47:41.700Z,756.23
2023-06-05T13:48:43.478Z,970.27
2023-06-05T13:49:47.036Z,776.37
2023-06-05T13:50:49.834Z,772.07
2023-06-05T13:51:51.665Z,745.77
2023-06-05T13:52:58.485Z,840.53
2023-06-05T13:54:00.404Z,1002.13
2023-06-05T13:55:03.093Z,851.43
2023-06-05T13:56:06.674Z,929.77
2023-06-05T13:57:08.747Z,1007.10
2023-06-05T13:58:12.564Z,1001.33
2023-06-05T13:59:14.704Z,1535.70
2023-06-05T14:00:17.914Z,1044.67
2023-06-05T14:01:22.405Z,859.70
2023-06-05T14:02:24.242Z,981.47
2023-06-05T14:03:27.425Z,867.80
2023-06-05T14:04:29.903Z,949.60
2023-06-05T14:05:33.426Z,848.30
2023-06-05T14:06:38.237Z,978.53
2023-06-05T14:08:50.702Z,953.60
2023-06-05T14:09:52.614Z,972.07
2023-06-05T14:11:07.132Z,973.30
2023-06-05T14:12:10.985Z,910.43
2023-06-05T14:13:13.758Z,916.00
2023-06-05T14:14:16.518Z,825.40
2023-06-05T14:16:30.639Z,762.23
2023-06-05T14:17:33.089Z,865.77
2023-06-05T14:18:36.080Z,896.97
2023-06-05T14:19:37.978Z,948.90
2023-06-05T14:20:40.893Z,797.57
2023-06-05T14:21:43.395Z,863.30
2023-06-05T14:22:46.367Z,1080.97
2023-06-05T14:24:46.519Z,869.97
2023-06-05T14:25:50.026Z,938.17
2023-06-05T14:26:54.656Z,791.83
2023-06-05T14:27:57.916Z,821.97
2023-06-05T14:28:59.781Z,1023.33
2023-06-05T14:30:02.643Z,957.00
2023-06-05T14:31:06.471Z,961.47
2023-06-05T14:32:32.117Z,970.07
2023-06-05T14:33:35.212Z,947.63
2023-06-05T14:34:37.250Z,917.53
2023-06-05T14:35:40.535Z,933.77
2023-06-05T14:36:42.489Z,785.60
2023-06-05T14:37:45.636Z,805.40
2023-06-05T14:38:47.495Z,855.17
2023-06-05T14:39:52.057Z,1088.90
2023-06-05T14:40:54.884Z,861.60
2023-06-05T14:41:57.717Z,745.00
2023-06-05T14:43:00.933Z,900.80
2023-06-05T14:44:13.902Z,734.63
2023-06-05T14:45:25.027Z,1072.20
2023-06-05T14:46:27.063Z,775.37
2023-06-05T14:47:31.720Z,970.13
2023-06-05T14:48:33.600Z,814.93
2023-06-05T14:49:36.462Z,882.83
2023-06-05T14:50:38.299Z,916.30
2023-06-05T14:51:41.590Z,964.37
2023-06-05T14:52:44.337Z,961.90
2023-06-05T14:53:46.346Z,758.63
2023-06-05T14:55:00.601Z,745.87
2023-06-05T14:56:08.263Z,785.53
2023-06-05T14:57:11.430Z,875.30
2023-06-05T14:58:13.241Z,908.37
2023-06-05T15:00:22.842Z,942.37
2023-06-05T15:01:24.728Z,1041.87
2023-06-05T15:02:27.483Z,1073.67
2023-06-05T15:03:30.952Z,1081.90
2023-06-05T15:04:34.907Z,1102.53
2023-06-05T15:05:36.818Z,1015.03
2023-06-05T15:06:39.652Z,1024.90
2023-06-05T15:07:44.148Z,908.40
2023-06-05T15:08:45.988Z,1028.77
2023-06-05T15:09:49.413Z,951.70
2023-06-05T15:10:51.643Z,991.27
2023-06-05T15:11:56.659Z,1030.37
2023-06-05T15:12:58.760Z,755.67
2023-06-05T15:14:01.652Z,931.00
2023-06-05T15:16:09.885Z,1003.27
2023-06-05T15:17:12.934Z,1013.63
2023-06-05T15:18:22.011Z,905.67
2023-06-05T15:19:26.332Z,944.97
2023-06-05T15:20:29.230Z,1121.73
2023-06-05T15:21:32.137Z,992.93
2023-06-05T15:22:34.501Z,841.30
2023-06-05T15:23:39.942Z,815.00
2023-06-05T15:24:41.922Z,854.23
2023-06-05T15:25:44.774Z,799.80
2023-06-05T15:26:46.816Z,893.03
2023-06-05T15:27:50.393Z,1051.30
2023-06-05T15:28:53.279Z,1003.47
2023-06-05T15:29:56.182Z,943.90
2023-06-05T15:30:57.994Z,931.23
2023-06-05T15:32:15.274Z,753.77
2023-06-05T15:33:22.168Z,959.67
2023-06-05T15:34:26.338Z,1150.67
2023-06-05T15:35:28.633Z,1005.27
2023-06-05T15:36:31.483Z,809.83
2023-06-05T15:37:34.216Z,798.60
2023-06-05T15:38:36.099Z,715.03
2023-06-05T15:39:38.813Z,1095.57
2023-06-05T15:40:40.670Z,1027.70
2023-06-05T15:41:46.113Z,903.80
2023-06-05T15:43:04.137Z,837.83
2023-06-05T15:44:08.918Z,835.77
2023-06-05T15:45:13.330Z,747.43
2023-06-05T15:46:16.509Z,759.80
2023-06-05T15:47:19.393Z,686.23
2023-06-05T15:48:22.877Z,807.33
2023-06-05T15:49:26.950Z,784.23
2023-06-05T15:50:28.809Z,757.63
2023-06-05T15:51:31.592Z,934.93
2023-06-05T15:52:34.309Z,841.37
2023-06-05T15:53:47.058Z,1143.93
2023-06-05T15:55:00.364Z,741.70
2023-06-05T15:56:04.221Z,856.53
2023-06-05T15:57:08.631Z,750.10
2023-06-05T15:58:12.484Z,819.00
2023-06-05T15:59:14.361Z,827.40
2023-06-05T16:00:18.066Z,940.33
2023-06-05T16:01:20.952Z,899.90
2023-06-05T16:02:22.871Z,787.30
2023-06-05T16:03:25.807Z,762.70
2023-06-05T16:04:33.494Z,932.27
2023-06-05T16:05:36.491Z,742.93
2023-06-05T16:06:38.558Z,670.70
2023-06-05T16:07:41.497Z,756.40
2023-06-05T16:08:44.412Z,783.57
2023-06-05T16:09:47.461Z,763.13
2023-06-05T16:10:50.272Z,684.17
2023-06-05T16:11:52.147Z,632.37
2023-06-05T16:12:54.974Z,591.80
2023-06-05T16:13:57.688Z,644.47
2023-06-05T16:14:59.618Z,839.23
2023-06-05T16:16:02.482Z,718.83
2023-06-05T16:17:05.776Z,853.47
2023-06-05T16:18:08.546Z,715.37
2023-06-05T16:19:10.809Z,645.83
2023-06-05T16:20:15.011Z,655.03
2023-06-05T16:21:17.014Z,802.33
2023-06-05T16:22:20.253Z,848.03
2023-06-05T16:23:23.054Z,775.30
2023-06-05T16:24:24.921Z,745.53
2023-06-05T16:25:27.944Z,762.67
2023-06-05T16:26:29.708Z,817.63
2023-06-05T16:27:32.586Z,727.50
2023-06-05T16:28:34.419Z,811.00
2023-06-05T16:29:37.096Z,938.87
2023-06-05T16:30:38.847Z,834.43
2023-06-05T16:31:42.618Z,803.30
2023-06-05T16:32:44.467Z,750.93
2023-06-05T16:33:47.257Z,755.70
2023-06-05T16:34:49.407Z,623.37
2023-06-05T16:35:53.469Z,882.20
2023-06-05T16:36:55.285Z,919.80
2023-06-05T16:37:58.199Z,853.03
2023-06-05T16:39:00.003Z,942.97
2023-06-05T16:40:02.801Z,1109.30
2023-06-05T16:41:04.793Z,1016.90
2023-06-05T16:42:08.367Z,929.80
2023-06-05T16:43:11.239Z,880.83
2023-06-05T16:44:14.036Z,965.63
2023-06-05T16:45:17.005Z,773.40
2023-06-05T16:46:21.173Z,821.23
2023-06-05T16:47:24.520Z,754.20
2023-06-05T16:48:26.592Z,960.80
2023-06-05T16:49:29.724Z,762.00
2023-06-05T16:50:31.786Z,971.00
2023-06-05T16:51:35.775Z,990.50
2023-06-05T16:52:38.484Z,974.67
2023-06-05T16:53:40.593Z,1013.93
2023-06-05T16:54:43.430Z,773.83
2023-06-05T16:55:46.295Z,932.63
2023-06-05T16:56:51.331Z,937.00
2023-06-05T16:57:53.237Z,814.40
2023-06-05T16:58:56.909Z,945.17
2023-06-05T16:59:58.785Z,823.80
2023-06-05T17:01:02.020Z,890.80
2023-06-05T17:02:05.490Z,715.60
2023-06-05T17:03:07.737Z,744.03
2023-06-05T17:04:10.993Z,777.17
2023-06-05T17:05:14.280Z,841.73
2023-06-05T17:06:17.035Z,941.80
2023-06-05T17:07:21.536Z,896.23
2023-06-05T17:08:23.845Z,895.77
2023-06-05T17:09:28.404Z,868.47
2023-06-05T17:10:33.926Z,869.70
2023-06-05T17:11:35.966Z,745.87
2023-06-05T17:12:41.823Z,690.37
2023-06-05T17:13:44.751Z,546.97
2023-06-05T17:14:46.636Z,741.37
2023-06-05T17:15:51.952Z,681.20
2023-06-05T17:16:54.805Z,929.83
2023-06-05T17:17:57.062Z,616.30
2023-06-05T17:18:59.985Z,675.83
2023-06-05T17:20:04.173Z,825.53
2023-06-05T17:21:06.379Z,755.27
2023-06-05T17:22:09.100Z,618.10
2023-06-05T17:23:15.271Z,628.63
2023-06-05T17:24:18.076Z,768.83
2023-06-05T17:25:20.029Z,685.90
2023-06-05T17:26:25.550Z,626.03
2023-06-05T17:27:28.278Z,704.20
2023-06-05T17:28:30.210Z,613.23
2023-06-05T17:29:33.011Z,668.20
2023-06-05T17:30:34.880Z,562.07
2023-06-05T17:31:37.744Z,669.97
2023-06-05T17:32:39.663Z,570.10
2023-06-05T17:33:43.177Z,479.03
2023-06-05T17:34:45.052Z,499.70
2023-06-05T17:35:47.984Z,665.13
2023-06-05T17:36:50.806Z,555.07
2023-06-05T17:37:52.655Z,434.43
2023-06-05T17:38:57.073Z,472.70
2023-06-05T17:39:59.866Z,421.93
2023-06-05T17:41:04.331Z,498.73
2023-06-05T17:42:08.295Z,447.13
2023-06-05T17:43:10.158Z,458.10
2023-06-05T17:44:14.837Z,481.90
2023-06-05T17:45:21.125Z,619.67
2023-06-05T17:46:24.196Z,431.27
2023-06-05T17:47:26.272Z,602.97
2023-06-05T17:48:29.178Z,506.57
2023-06-05T17:49:32.052Z,459.37
2023-06-05T17:51:09.397Z,513.40
2023-06-05T17:52:11.597Z,384.03
2023-06-05T17:53:14.361Z,568.83
2023-06-05T17:54:19.600Z,555.83
2023-06-05T17:55:23.543Z,367.97
2023-06-05T17:56:26.957Z,387.47
2023-06-05T17:57:28.856Z,563.57
2023-06-05T17:58:31.635Z,340.67
2023-06-05T17:59:33.521Z,749.20
2023-06-05T18:00:37.779Z,411.07
2023-06-05T18:01:40.079Z,565.17
2023-06-05T18:02:45.653Z,642.40
2023-06-05T18:03:51.073Z,772.33
2023-06-05T18:04:53.210Z,807.93
2023-06-05T18:05:55.966Z,686.00